메인 페이지
METAR-TAF:

METAR-TAF

공항 :

Altus Air Force Base

Altus, 오클라호마, 미국

위도: 34-39N, 경도: 099-16W, 고도: 420m

현재 날씨관측

예보는 1 시간 0분 전, 16:56시(UTC)에 발표되었습니다.
13kt, 순간 최대 풍속 17kt
온도 28°C
습도 58%
기압 1014 hPa
시정: 16.1km
맑음

METAR: KLTS 251656Z AUTO 19013G17KT 10SM CLR 28/19 A2993 RMK AO2 SLP122 T02810185 $

시각: 12:56 (17:56 UTC)

예보

예보는 56분 전, 17:00시(UTC)에 발표되었습니다.
예보 대상 시간: 25일 17시부터 26일 23시까지 (UTC)
남남서10kt, 순간 최대 풍속 15kt
시정 10km 이상
맑음
전환 중
26일 02시부터 26일 03시까지 (UTC)
15kt, 순간 최대 풍속 25kt
시정 10km 이상
고도 4000ft 상공 구름 보통
일시적
26일 06시부터 26일 09시까지 (UTC)
25kt, 순간 최대 풍속 35kt
전환 중
26일 12시부터 26일 13시까지 (UTC)
북북동15kt, 순간 최대 풍속 25kt
시정: 9000m
고도 2500ft 상공 구름 많음
약한소나기
전환 중
26일 14시부터 26일 15시까지 (UTC)
북북동12kt, 순간 최대 풍속 20kt
시정: 9000m
고도 3000ft 상공 구름 많음
약한소나기
전환 중
26일 22시부터 26일 23시까지 (UTC)
북북동9kt
시정 10km 이상
고도 3500ft 상공 구름 보통

TAF: KLTS 251700Z 2517/2623 21010G15KT 9999 SKC QNH2983INS BECMG 2602/2603 36015G25KT 9999 SCT040 510102 QNH2996INS TEMPO 2606/2609 01025G35KT BECMG 2612/2613 03015G25KT 9000 -SHRA BKN025 510102 QNH3012INS BECMG 2614/2615 03012G20KT 9000 -SHRA BKN030 QNH3016INS BECMG 2622/2623 03009KT 9999 NSW SCT035 QNH3022INS TX30/2521Z TN14/2612Z

4,000개 이상의 공항 관측 자료 및 예보 (METAR 및 TAF 보고).

지도상에서 검색 가능한 기상관측소가 노란 점과 빨간 점으로 표시되어 있습니다.

기상관측소 명을 보려면 표시 위로 마우스를 이동하세요.

날씨 관측과 예보를 보려면 클릭하세요.

지도 변경 : 확대하려면 엑스 표시가 있는 녹색 버튼, 축소하려면 빼기 표시가 있는 녹색 버튼, 다음 페이지의 지도를 보려면 녹색 화살표를 클릭하세요.


METAR-TAF: